Time;durP1;ratioP1;P1;durP2;ratioP2;P2;SDS_P1;SDS_P2;PMS_P1;PMS_P2;Temp;Humidity;BMP_temperature;BMP_pressure;BME280_temperature;BME280_humidity;BME280_pressure;Samples;Min_cycle;Max_cycle;Signal;HPM_P1;HPM_P2
2021/01/18 00:01:42;;;;;;;122.80;54.13;;;;;;;-10.67;67.62;99359.47;2262353;79;21159;-80
2021/01/18 00:04:44;;;;;;;128.70;54.95;;;;;;;-10.66;67.49;99354.80;2262236;78;21305;-81
2021/01/18 00:07:46;;;;;;;133.10;54.90;;;;;;;-10.74;67.58;99352.86;2262270;79;21317;-79
2021/01/18 00:10:48;;;;;;;124.78;55.40;;;;;;;-10.76;67.78;99349.53;2262416;78;21178;-81
2021/01/18 00:13:49;;;;;;;141.92;62.03;;;;;;;-10.78;67.77;99344.52;2262429;79;21274;-80
2021/01/18 00:16:51;;;;;;;138.03;60.30;;;;;;;-10.77;67.92;99340.28;2262562;79;21145;-80
2021/01/18 00:19:53;;;;;;;145.12;59.67;;;;;;;-10.73;67.96;99346.50;2262260;78;21254;-80
2021/01/18 00:22:54;;;;;;;129.57;56.55;;;;;;;-10.68;67.90;99342.62;2262703;78;21285;-80
2021/01/18 00:25:56;;;;;;;109.63;44.38;;;;;;;-10.71;67.85;99347.29;2262681;78;21274;-80
2021/01/18 00:28:58;;;;;;;148.07;60.50;;;;;;;-10.77;67.92;99350.41;2262598;78;21285;-79
2021/01/18 00:31:59;;;;;;;152.17;64.45;;;;;;;-10.83;67.69;99344.19;2262333;78;21305;-79
2021/01/18 00:35:01;;;;;;;107.32;46.60;;;;;;;-10.92;67.82;99334.66;2262649;79;21285;-81
2021/01/18 00:38:03;;;;;;;134.10;58.78;;;;;;;-10.94;68.01;99332.59;2262316;78;21278;-80
2021/01/18 00:41:04;;;;;;;135.50;58.70;;;;;;;-11.03;67.97;99339.54;2262992;79;21139;-78
2021/01/18 00:44:06;;;;;;;137.62;59.98;;;;;;;-11.05;68.28;99338.75;2263763;78;21622;-79
2021/01/18 00:47:08;;;;;;;127.22;54.23;;;;;;;-11.13;68.10;99340.59;2262026;78;21313;-80
2021/01/18 00:50:10;;;;;;;145.10;60.70;;;;;;;-11.14;68.23;99344.81;2262527;78;21721;-80
2021/01/18 00:53:11;;;;;;;143.72;62.08;;;;;;;-11.23;68.23;99342.03;2262550;79;21646;-80
2021/01/18 00:56:13;;;;;;;140.18;60.90;;;;;;;-11.20;68.31;99340.70;2262533;78;21758;-81
2021/01/18 00:59:15;;;;;;;133.37;57.58;;;;;;;-11.20;68.43;99347.02;2262663;78;21290;-80
2021/01/18 01:02:17;;;;;;;132.22;58.33;;;;;;;-11.20;68.45;99337.34;2262494;79;21127;-81
2021/01/18 01:05:18;;;;;;;114.17;49.50;;;;;;;-11.18;68.51;99343.19;2262724;78;21289;-79
2021/01/18 01:08:20;;;;;;;122.92;49.98;;;;;;;-11.16;68.26;99350.31;2262962;78;21285;-81
2021/01/18 01:11:22;;;;;;;149.60;61.77;;;;;;;-11.17;68.20;99344.85;2262693;78;21262;-81
2021/01/18 01:14:23;;;;;;;125.78;54.08;;;;;;;-11.23;68.19;99335.70;2262616;79;21629;-78
2021/01/18 01:17:25;;;;;;;152.00;64.25;;;;;;;-11.20;68.21;99339.43;2262916;78;21710;-79
2021/01/18 01:20:27;;;;;;;145.75;66.50;;;;;;;-11.24;68.07;99345.86;2262807;78;21558;-79
2021/01/18 01:23:29;;;;;;;147.45;62.33;;;;;;;-11.28;68.24;99342.97;2262690;78;21726;-80
2021/01/18 01:26:31;;;;;;;122.95;53.33;;;;;;;-11.33;68.28;99350.66;2262516;78;21594;-80
2021/01/18 01:29:33;;;;;;;145.60;61.53;;;;;;;-11.40;68.25;99352.87;2262565;78;21282;-80
2021/01/18 01:32:34;;;;;;;158.30;63.00;;;;;;;-11.39;68.35;99343.17;2262545;78;21285;-81
2021/01/18 01:35:36;;;;;;;154.40;63.95;;;;;;;-11.42;68.44;99353.34;2262891;78;21302;-80
2021/01/18 01:38:37;;;;;;;157.88;64.75;;;;;;;-11.35;68.63;99345.20;2262833;78;21599;-82
2021/01/18 01:41:39;;;;;;;156.85;64.53;;;;;;;-11.23;68.74;99348.78;2262999;78;21267;-81
2021/01/18 01:44:41;;;;;;;128.20;52.67;;;;;;;-11.03;68.84;99347.95;2262965;79;21269;-81
2021/01/18 01:47:42;;;;;;;161.22;65.52;;;;;;;-10.92;68.31;99345.21;2262333;78;21273;-81
2021/01/18 01:50:44;;;;;;;127.47;58.25;;;;;;;-10.97;68.27;99354.17;2263011;79;21725;-80
2021/01/18 01:53:45;;;;;;;142.57;58.28;;;;;;;-11.00;68.28;99343.27;2262553;78;21301;-80
2021/01/18 01:56:47;;;;;;;147.13;58.28;;;;;;;-10.91;68.41;99348.14;2262605;78;21155;-80
2021/01/18 01:59:49;;;;;;;144.25;64.05;;;;;;;-10.84;68.38;99350.12;2262852;79;21129;-80
2021/01/18 02:02:51;;;;;;;138.60;60.05;;;;;;;-10.78;68.31;99357.16;2262305;78;21278;-80
2021/01/18 02:05:54;;;;;;;119.85;52.80;;;;;;;-10.69;68.42;99354.44;2262432;79;21154;-79
2021/01/18 02:08:55;;;;;;;138.68;55.10;;;;;;;-10.59;68.50;99366.91;2262293;79;21305;-81
2021/01/18 02:11:57;;;;;;;131.63;56.05;;;;;;;-10.55;68.19;99363.42;2262504;79;21266;-81
2021/01/18 02:14:59;;;;;;;106.03;48.60;;;;;;;-10.51;68.32;99359.55;2262500;78;21702;-80
2021/01/18 02:18:01;;;;;;;93.92;38.98;;;;;;;-10.44;67.97;99351.36;2262444;79;21580;-82
2021/01/18 02:21:02;;;;;;;97.82;44.10;;;;;;;-10.44;68.14;99347.56;2262442;78;21289;-80
2021/01/18 02:24:04;;;;;;;96.28;41.23;;;;;;;-10.47;68.15;99345.94;2262302;78;21754;-77
2021/01/18 02:27:05;;;;;;;109.15;48.28;;;;;;;-10.48;67.97;99347.25;2262496;78;21317;-79
2021/01/18 02:30:08;;;;;;;116.82;47.40;;;;;;;-10.50;68.21;99347.29;2262284;78;21293;-78
2021/01/18 02:33:10;;;;;;;108.63;47.93;;;;;;;-10.45;68.04;99342.11;2262361;79;21328;-80
2021/01/18 02:36:12;;;;;;;98.58;43.30;;;;;;;-10.38;68.26;99344.91;2262344;78;21305;-79
2021/01/18 02:39:14;;;;;;;102.35;41.45;;;;;;;-10.36;67.94;99342.73;2262468;78;21666;-80
2021/01/18 02:42:15;;;;;;;95.15;39.92;;;;;;;-10.28;68.23;99343.00;2262433;78;21309;-78
2021/01/18 02:45:17;;;;;;;81.42;37.73;;;;;;;-10.25;68.24;99342.92;2262339;79;21325;-80
2021/01/18 02:48:19;;;;;;;81.00;33.23;;;;;;;-10.17;68.28;99344.81;2262330;78;21250;-78
2021/01/18 02:51:21;;;;;;;76.50;33.30;;;;;;;-10.15;68.05;99338.87;2262462;79;21294;-79
2021/01/18 02:54:22;;;;;;;69.70;30.15;;;;;;;-10.19;67.97;99334.73;2262459;78;21286;-79
2021/01/18 02:57:24;;;;;;;71.47;30.90;;;;;;;-10.22;67.85;99341.17;2262427;78;21729;-79
2021/01/18 03:00:26;;;;;;;63.92;27.73;;;;;;;-10.32;67.78;99340.98;2262374;79;21738;-79
2021/01/18 03:03:27;;;;;;;71.92;30.68;;;;;;;-10.28;67.93;99348.90;2262311;78;21313;-78
2021/01/18 03:06:29;;;;;;;58.95;28.02;;;;;;;-10.24;67.87;99348.38;2262281;78;21693;-80
2021/01/18 03:09:31;;;;;;;66.40;30.82;;;;;;;-10.27;67.79;99348.03;2262208;78;21273;-80
2021/01/18 03:12:32;;;;;;;81.45;33.00;;;;;;;-10.25;67.66;99333.62;2262300;78;21288;-80
2021/01/18 03:15:34;;;;;;;62.93;29.40;;;;;;;-10.26;67.58;99334.93;2262559;78;21313;-78
2021/01/18 03:18:36;;;;;;;74.77;29.82;;;;;;;-10.34;67.72;99334.66;2262518;79;21290;-79
2021/01/18 03:21:38;;;;;;;61.90;27.22;;;;;;;-10.46;67.78;99340.02;2262473;78;21760;-78
2021/01/18 03:24:40;;;;;;;73.10;29.75;;;;;;;-10.61;67.62;99337.37;2262330;79;21737;-79
2021/01/18 03:27:42;;;;;;;92.47;41.77;;;;;;;-10.61;68.32;99336.53;2262223;79;21290;-78
2021/01/18 03:30:43;;;;;;;66.80;27.77;;;;;;;-10.48;68.39;99343.45;2262188;78;21642;-79
2021/01/18 03:33:45;;;;;;;74.70;29.45;;;;;;;-10.54;67.98;99335.55;2262274;79;21257;-80
2021/01/18 03:36:47;;;;;;;68.78;27.98;;;;;;;-10.55;68.20;99331.35;2262285;78;21265;-80
2021/01/18 03:39:49;;;;;;;56.63;26.82;;;;;;;-10.53;68.03;99336.38;2262684;78;21147;-78
2021/01/18 03:42:51;;;;;;;59.77;27.00;;;;;;;-10.51;68.11;99332.11;2262641;78;21297;-81
2021/01/18 03:45:52;;;;;;;60.92;28.30;;;;;;;-10.46;68.12;99330.32;2262649;79;21274;-82
2021/01/18 03:48:54;;;;;;;64.22;28.80;;;;;;;-10.43;68.12;99332.77;2262836;78;21305;-81
2021/01/18 03:51:56;;;;;;;69.97;32.80;;;;;;;-10.39;68.01;99330.59;2262753;78;21147;-81
2021/01/18 03:54:58;;;;;;;81.60;35.40;;;;;;;-10.28;68.22;99331.17;2262747;78;21309;-81
2021/01/18 03:58:00;;;;;;;76.55;33.78;;;;;;;-10.25;67.94;99330.26;2262986;78;21349;-82
2021/01/18 04:01:01;;;;;;;75.85;33.83;;;;;;;-10.16;68.00;99321.15;2262814;78;21597;-80
2021/01/18 04:04:03;;;;;;;73.65;29.75;;;;;;;-10.14;67.76;99327.03;2262605;79;21586;-79
2021/01/18 04:07:05;;;;;;;75.28;31.73;;;;;;;-10.20;67.43;99323.37;2262842;78;21134;-79
2021/01/18 04:10:07;;;;;;;69.03;31.12;;;;;;;-10.25;67.64;99322.66;2262812;78;21296;-80
2021/01/18 04:13:08;;;;;;;70.62;30.92;;;;;;;-10.19;68.01;99323.33;2262816;78;21154;-80
2021/01/18 04:16:10;;;;;;;64.37;29.35;;;;;;;-10.18;67.56;99309.80;2262860;79;21313;-80
2021/01/18 04:19:12;;;;;;;71.80;29.80;;;;;;;-10.08;67.87;99312.50;2263085;78;21321;-81
2021/01/18 04:22:14;;;;;;;79.15;34.90;;;;;;;-10.02;67.89;99315.77;2263259;78;21293;-81
2021/01/18 04:25:16;;;;;;;54.03;25.20;;;;;;;-9.85;67.80;99313.66;2263231;79;21178;-79
2021/01/18 04:28:18;;;;;;;67.97;29.40;;;;;;;-9.88;67.25;99319.61;2262708;78;21313;-81
2021/01/18 04:31:20;;;;;;;200.18;82.47;;;;;;;-9.84;67.55;99311.52;2262421;78;21309;-81
2021/01/18 04:34:22;;;;;;;91.28;37.55;;;;;;;-9.81;67.63;99307.19;2262713;78;21293;-81
2021/01/18 04:37:23;;;;;;;80.97;35.15;;;;;;;-9.72;67.45;99302.77;2262363;78;21270;-80
2021/01/18 04:40:25;;;;;;;73.07;31.68;;;;;;;-9.78;67.20;99301.23;2263478;78;21590;-79
2021/01/18 04:43:26;;;;;;;76.02;35.00;;;;;;;-9.78;67.25;99308.84;2264016;78;21512;-80
2021/01/18 04:46:29;;;;;;;72.00;33.15;;;;;;;-9.81;66.96;99317.77;2262810;79;21305;-81
2021/01/18 04:49:30;;;;;;;87.27;37.48;;;;;;;-9.85;67.09;99311.12;2262542;78;21273;-82
2021/01/18 04:52:32;;;;;;;89.07;39.40;;;;;;;-9.82;67.24;99318.20;2262797;78;21297;-81
2021/01/18 04:55:35;;;;;;;79.75;34.63;;;;;;;-9.87;66.73;99325.55;2263140;79;21317;-80
2021/01/18 04:58:36;;;;;;;76.75;33.90;;;;;;;-9.93;67.01;99318.91;2262606;79;21289;-78
2021/01/18 05:01:38;;;;;;;99.32;42.65;;;;;;;-9.87;67.15;99325.11;2262555;78;21298;-80
2021/01/18 05:04:40;;;;;;;82.75;37.75;;;;;;;-9.76;67.55;99326.94;2262476;78;21309;-80
2021/01/18 05:07:41;;;;;;;78.22;37.05;;;;;;;-9.58;67.40;99309.59;2262649;78;21147;-81
2021/01/18 05:10:43;;;;;;;81.60;36.90;;;;;;;-9.60;66.74;99305.84;2262683;78;21320;-80
2021/01/18 05:13:45;;;;;;;63.80;32.00;;;;;;;-9.63;66.62;99303.80;2262894;78;21261;-79
2021/01/18 05:16:47;;;;;;;71.62;31.82;;;;;;;-9.69;66.57;99295.07;2262741;79;21701;-81
2021/01/18 05:19:49;;;;;;;73.30;31.48;;;;;;;-9.66;66.70;99294.58;2263072;78;21159;-80
2021/01/18 05:22:51;;;;;;;81.30;34.35;;;;;;;-9.57;66.62;99297.31;2263022;78;21147;-80
2021/01/18 05:25:53;;;;;;;68.60;33.33;;;;;;;-9.54;66.76;99297.22;2262815;78;21555;-80
2021/01/18 05:28:55;;;;;;;78.78;32.03;;;;;;;-9.64;66.10;99300.43;2262509;79;21135;-79
2021/01/18 05:31:57;;;;;;;72.40;32.58;;;;;;;-9.65;66.56;99299.20;2262453;79;21349;-80
2021/01/18 05:34:59;;;;;;;143.85;53.80;;;;;;;-9.68;66.33;99307.73;2262745;78;21289;-79
2021/01/18 05:38:01;;;;;;;112.85;46.90;;;;;;;-9.70;66.40;99296.77;2262573;78;21730;-81
2021/01/18 05:41:02;;;;;;;89.72;37.83;;;;;;;-9.78;66.12;99307.58;2262445;78;21278;-82
2021/01/18 05:44:04;;;;;;;82.85;32.20;;;;;;;-9.94;66.09;99304.58;2262444;78;21159;-80
2021/01/18 05:47:06;;;;;;;73.62;32.98;;;;;;;-10.02;66.44;99310.27;2260505;78;21304;-82
2021/01/18 05:50:09;;;;;;;87.53;34.88;;;;;;;-9.97;66.56;99307.61;2258033;79;21107;-81
2021/01/18 05:53:11;;;;;;;160.75;61.35;;;;;;;-10.01;66.12;99306.03;2258163;79;21142;-79
2021/01/18 05:56:13;;;;;;;169.25;68.97;;;;;;;-9.99;66.58;99306.81;2258214;79;21148;-79
2021/01/18 05:59:15;;;;;;;189.80;78.62;;;;;;;-10.00;66.33;99302.19;2258010;79;21135;-80
2021/01/18 06:02:17;;;;;;;129.95;48.10;;;;;;;-10.09;65.78;99313.81;2258204;79;21120;-80
2021/01/18 06:05:19;;;;;;;124.02;52.05;;;;;;;-10.18;66.13;99311.06;2258022;79;21178;-80
2021/01/18 06:08:20;;;;;;;95.97;42.67;;;;;;;-10.16;66.31;99311.84;2257985;79;21175;-80
2021/01/18 06:11:22;;;;;;;194.75;71.15;;;;;;;-10.06;66.05;99306.98;2258400;79;21761;-78
2021/01/18 06:14:24;;;;;;;215.65;78.55;;;;;;;-10.08;66.08;99314.20;2258268;79;21773;-78
2021/01/18 06:17:25;;;;;;;130.85;50.03;;;;;;;-10.17;65.37;99310.62;2258374;79;21171;-80
2021/01/18 06:20:27;;;;;;;98.65;38.38;;;;;;;-10.51;65.65;99309.32;2258105;79;21704;-78
2021/01/18 06:23:29;;;;;;;85.65;36.98;;;;;;;-10.59;66.08;99319.64;2258044;79;21096;-80
2021/01/18 06:26:31;;;;;;;83.20;38.48;;;;;;;-10.43;66.40;99322.64;2258052;79;21724;-79
2021/01/18 06:29:33;;;;;;;92.15;42.30;;;;;;;-10.38;66.33;99322.13;2258099;79;21242;-76
2021/01/18 06:32:35;;;;;;;82.85;39.83;;;;;;;-10.32;66.18;99328.77;2258229;79;21134;-77
2021/01/18 06:35:36;;;;;;;91.60;39.73;;;;;;;-10.29;66.34;99328.24;2258472;79;21301;-77
2021/01/18 06:38:38;;;;;;;94.25;40.30;;;;;;;-10.27;66.05;99329.03;2258244;79;21136;-76
2021/01/18 06:41:40;;;;;;;121.57;48.50;;;;;;;-10.20;66.37;99330.97;2258850;79;21306;-76
2021/01/18 06:44:42;;;;;;;136.10;53.63;;;;;;;-10.09;66.41;99338.70;2258184;79;21598;-79
2021/01/18 06:47:44;;;;;;;107.97;46.53;;;;;;;-9.93;66.23;99337.91;2261650;79;21175;-80
2021/01/18 06:50:46;;;;;;;105.75;46.30;;;;;;;-10.02;65.87;99338.13;2265238;78;21630;-81
2021/01/18 06:53:47;;;;;;;117.95;51.48;;;;;;;-9.99;65.94;99344.39;2265219;78;21167;-80
2021/01/18 06:56:49;;;;;;;114.30;46.28;;;;;;;-10.01;65.88;99349.09;2265150;78;21579;-78
2021/01/18 06:59:51;;;;;;;113.90;49.73;;;;;;;-10.01;65.97;99353.73;2265044;78;21131;-81
2021/01/18 07:02:53;;;;;;;90.90;40.35;;;;;;;-10.06;65.98;99351.72;2265063;78;21100;-82
2021/01/18 07:05:54;;;;;;;132.55;51.00;;;;;;;-10.17;65.65;99357.05;2265011;79;21150;-82
2021/01/18 07:08:56;;;;;;;140.85;55.95;;;;;;;-10.25;65.55;99360.65;2265145;78;21614;-81
2021/01/18 07:11:58;;;;;;;334.50;113.90;;;;;;;-10.30;66.01;99365.00;2265085;78;21304;-81
2021/01/18 07:14:59;;;;;;;211.52;74.92;;;;;;;-10.17;66.22;99362.55;2265023;79;21178;-82
2021/01/18 07:18:01;;;;;;;229.60;75.80;;;;;;;-10.06;66.16;99372.86;2265166;78;21266;-82
2021/01/18 07:21:03;;;;;;;109.87;44.13;;;;;;;-9.94;66.17;99366.66;2265402;78;21265;-81
2021/01/18 07:24:04;;;;;;;90.07;37.63;;;;;;;-9.84;65.98;99368.54;2265376;79;21298;-82
2021/01/18 07:27:07;;;;;;;92.92;39.70;;;;;;;-9.94;65.64;99364.12;2265131;78;21163;-82
2021/01/18 07:30:09;;;;;;;84.65;37.58;;;;;;;-10.03;65.41;99358.01;2265700;78;21305;-81
2021/01/18 07:33:11;;;;;;;89.17;41.58;;;;;;;-10.06;65.62;99364.39;2265110;78;21154;-80
2021/01/18 07:36:13;;;;;;;77.30;33.05;;;;;;;-10.02;65.96;99366.44;2265387;79;21273;-80
2021/01/18 07:39:14;;;;;;;93.50;39.33;;;;;;;-10.00;65.57;99367.23;2265417;78;21313;-80
2021/01/18 07:42:16;;;;;;;92.33;40.35;;;;;;;-9.93;65.85;99373.83;2265073;78;21162;-81
2021/01/18 07:45:19;;;;;;;105.32;46.83;;;;;;;-9.79;65.73;99352.77;2265057;78;21138;-81
2021/01/18 07:48:21;;;;;;;185.05;65.78;;;;;;;-9.69;65.74;99357.17;2260476;79;21674;-80
2021/01/18 07:51:23;;;;;;;273.70;84.60;;;;;;;-9.57;65.59;99364.06;2257857;79;21119;-81
2021/01/18 07:54:25;;;;;;;290.48;89.97;;;;;;;-9.50;65.54;99360.50;2257985;79;21674;-79
2021/01/18 07:57:27;;;;;;;186.70;60.58;;;;;;;-9.37;65.44;99358.47;2257796;79;21128;-81
2021/01/18 08:00:29;;;;;;;194.13;65.47;;;;;;;-9.34;65.45;99348.23;2258185;79;21694;-81
2021/01/18 08:03:30;;;;;;;227.47;74.85;;;;;;;-9.32;65.35;99355.83;2258292;79;21383;-81
2021/01/18 08:06:32;;;;;;;175.47;61.42;;;;;;;-9.27;65.37;99353.55;2258199;79;21147;-82
2021/01/18 08:09:34;;;;;;;109.30;46.90;;;;;;;-9.14;65.20;99345.60;2258240;79;21297;-80
2021/01/18 08:12:36;;;;;;;119.80;47.75;;;;;;;-8.96;65.18;99351.03;2257911;79;21729;-81
2021/01/18 08:15:38;;;;;;;450.83;162.25;;;;;;;-8.87;64.85;99346.11;2257894;79;21740;-81
2021/01/18 08:18:40;;;;;;;285.48;88.92;;;;;;;-8.86;64.61;99348.24;2258205;79;21301;-81
2021/01/18 08:21:43;;;;;;;171.57;58.45;;;;;;;-8.85;64.77;99354.54;2257764;79;21182;-79
2021/01/18 08:24:45;;;;;;;110.60;43.28;;;;;;;-8.67;64.56;99354.45;2257921;79;21139;-80
2021/01/18 08:27:51;;;;;;;114.65;43.23;;;;;;;-8.55;64.43;99349.45;2257759;79;21132;-80
2021/01/18 08:30:53;;;;;;;95.97;39.60;;;;;;;-8.41;64.14;99351.98;2258121;79;21552;-79
2021/01/18 08:33:54;;;;;;;87.78;39.80;;;;;;;-8.28;63.72;99351.13;2258018;79;21131;-80
2021/01/18 08:36:56;;;;;;;87.02;39.70;;;;;;;-8.21;63.76;99350.52;2257840;79;21178;-80
2021/01/18 08:39:58;;;;;;;87.50;40.00;;;;;;;-8.20;63.66;99353.00;2258564;79;21178;-81
2021/01/18 08:43:00;;;;;;;233.68;89.58;;;;;;;-8.01;63.73;99364.70;2258278;79;21701;-81
2021/01/18 08:46:01;;;;;;;264.12;94.67;;;;;;;-7.82;63.62;99359.86;2257832;79;21162;-81
2021/01/18 08:49:03;;;;;;;140.55;55.88;;;;;;;-7.66;63.21;99347.48;2245974;78;21231;-80
2021/01/18 08:52:04;;;;;;;182.17;69.60;;;;;;;-7.61;62.84;99347.70;2236102;79;21109;-80
2021/01/18 08:55:06;;;;;;;236.32;88.55;;;;;;;-7.56;63.05;99348.41;2219611;79;21758;-81
2021/01/18 08:58:08;;;;;;;109.57;46.73;;;;;;;-7.52;62.55;99355.48;2225724;79;21281;-82
2021/01/18 09:01:10;;;;;;;196.30;71.97;;;;;;;-7.57;62.68;99354.38;2236500;79;21127;-80
2021/01/18 09:04:11;;;;;;;215.95;81.42;;;;;;;-7.45;62.65;99344.22;2223672;79;21303;-80
2021/01/18 09:07:13;;;;;;;162.10;64.32;;;;;;;-7.41;62.00;99350.85;2218152;80;21279;-79
2021/01/18 09:10:14;;;;;;;190.15;74.30;;;;;;;-7.45;62.16;99354.40;2218207;80;21231;-80
2021/01/18 09:13:16;;;;;;;206.35;73.92;;;;;;;-7.49;61.98;99354.95;2172160;82;21588;-78
2021/01/18 09:16:18;;;;;;;94.58;41.92;;;;;;;-7.52;61.97;99366.48;2168051;82;21155;-78
2021/01/18 09:19:20;;;;;;;105.85;45.65;;;;;;;-7.56;61.67;99362.84;2194902;80;21286;-80
2021/01/18 09:22:21;;;;;;;87.47;39.88;;;;;;;-7.61;61.96;99357.05;2241729;79;21277;-79
2021/01/18 09:25:23;;;;;;;84.13;39.03;;;;;;;-7.57;61.89;99358.19;2248766;79;21280;-80
2021/01/18 09:28:25;;;;;;;84.72;39.18;;;;;;;-7.51;62.05;99352.87;2229059;78;21255;-80
2021/01/18 09:31:26;;;;;;;80.10;39.75;;;;;;;-7.37;62.12;99354.97;2224752;79;21741;-80
2021/01/18 09:34:28;;;;;;;82.80;38.40;;;;;;;-7.26;61.51;99346.52;2224885;79;21753;-81
2021/01/18 09:37:29;;;;;;;86.25;40.08;;;;;;;-7.28;60.90;99348.74;2223865;79;21272;-82
2021/01/18 09:40:31;;;;;;;95.32;44.58;;;;;;;-7.37;61.29;99336.33;2226058;79;21261;-82
2021/01/18 09:43:33;;;;;;;86.15;37.53;;;;;;;-7.45;61.31;99343.78;2240432;79;21253;-80
2021/01/18 09:46:34;;;;;;;79.03;37.13;;;;;;;-7.36;61.54;99326.54;2231219;79;21095;-81
2021/01/18 09:49:36;;;;;;;88.20;39.40;;;;;;;-7.34;60.94;99330.69;2229032;79;21324;-81
2021/01/18 09:52:37;;;;;;;78.92;38.05;;;;;;;-7.47;61.14;99312.92;2239962;78;21167;-81
2021/01/18 09:55:39;;;;;;;75.45;36.05;;;;;;;-7.50;60.78;99320.22;2229647;80;21282;-79
2021/01/18 09:58:40;;;;;;;83.37;38.63;;;;;;;-7.71;60.54;99316.28;2229691;80;21563;-81
2021/01/18 10:01:42;;;;;;;77.42;37.03;;;;;;;-7.66;61.00;99315.70;2229781;80;21283;-81
2021/01/18 10:04:43;;;;;;;83.47;41.95;;;;;;;-7.65;60.53;99316.09;2242793;78;21724;-79
2021/01/18 10:07:45;;;;;;;84.58;38.45;;;;;;;-7.84;59.72;99309.06;2269863;78;21141;-79
2021/01/18 10:10:47;;;;;;;76.72;37.35;;;;;;;-7.96;60.71;99300.98;2269875;78;21150;-79
2021/01/18 10:13:49;;;;;;;80.07;38.23;;;;;;;-8.17;60.79;99306.33;2260961;78;21686;-80
2021/01/18 10:16:50;;;;;;;80.72;40.15;;;;;;;-8.02;61.54;99294.41;2229561;80;21749;-80
2021/01/18 10:19:52;;;;;;;76.85;38.88;;;;;;;-7.98;61.28;99288.77;2232715;78;21190;-81
2021/01/18 10:22:53;;;;;;;80.30;35.68;;;;;;;-7.91;61.52;99286.43;2269703;78;21274;-80
2021/01/18 10:25:55;;;;;;;89.60;40.23;;;;;;;-7.85;61.33;99287.06;2269970;78;21281;-78
2021/01/18 10:28:57;;;;;;;91.92;42.65;;;;;;;-7.88;60.98;99287.14;2270238;78;21276;-80
2021/01/18 10:31:58;;;;;;;88.27;44.23;;;;;;;-7.90;61.09;99282.56;2267823;78;21163;-78
2021/01/18 10:35:00;;;;;;;92.85;42.38;;;;;;;-7.82;61.24;99286.95;2229847;80;21169;-79
2021/01/18 10:38:01;;;;;;;92.17;41.33;;;;;;;-7.65;61.63;99285.13;2229481;80;21174;-82
2021/01/18 10:41:03;;;;;;;91.20;42.27;;;;;;;-7.51;61.27;99277.83;2229417;80;21147;-81
2021/01/18 10:44:05;;;;;;;91.87;42.15;;;;;;;-7.61;60.81;99277.77;2229765;80;21162;-79
2021/01/18 10:47:07;;;;;;;84.55;40.90;;;;;;;-7.62;60.90;99271.02;2229783;80;21261;-78
2021/01/18 10:50:09;;;;;;;78.47;36.15;;;;;;;-7.71;60.50;99273.88;2224949;79;21277;-78
2021/01/18 10:53:11;;;;;;;81.97;38.92;;;;;;;-7.70;60.62;99275.97;2224750;79;21274;-78
2021/01/18 10:56:13;;;;;;;84.28;38.02;;;;;;;-7.78;60.97;99271.97;2224615;79;21764;-82
2021/01/18 10:59:15;;;;;;;79.77;38.17;;;;;;;-7.59;61.41;99271.34;2225099;80;21108;-81
2021/01/18 11:02:17;;;;;;;79.75;37.42;;;;;;;-7.35;61.33;99273.49;2224693;79;21136;-81
2021/01/18 11:05:18;;;;;;;81.55;40.12;;;;;;;-7.16;61.25;99271.95;2225099;79;21270;-82
2021/01/18 11:08:22;;;;;;;95.35;46.18;;;;;;;-7.19;60.84;99274.17;2219210;79;21295;-81
2021/01/18 11:11:23;;;;;;;98.50;46.13;;;;;;;-7.18;60.83;99278.38;2218061;80;21796;-81
2021/01/18 11:14:26;;;;;;;93.47;44.42;;;;;;;-7.17;60.99;99269.84;2218221;80;21146;-81
2021/01/18 11:17:28;;;;;;;91.45;40.20;;;;;;;-7.03;60.98;99273.17;2224975;79;21151;-83
2021/01/18 11:20:30;;;;;;;93.10;43.48;;;;;;;-7.21;60.57;99269.58;2237995;79;21134;-81
2021/01/18 11:23:32;;;;;;;96.12;42.48;;;;;;;-7.23;60.97;99276.86;2217975;80;21183;-81
2021/01/18 11:26:34;;;;;;;91.00;42.38;;;;;;;-7.19;61.09;99270.80;2223596;80;21726;-81
2021/01/18 11:29:36;;;;;;;82.97;39.60;;;;;;;-7.23;61.00;99268.78;2224950;80;21171;-82
2021/01/18 11:32:37;;;;;;;89.30;39.55;;;;;;;-7.12;61.02;99267.59;2224476;80;21306;-81
2021/01/18 11:35:39;;;;;;;102.80;45.40;;;;;;;-7.08;61.13;99263.59;2224973;80;21140;-79
2021/01/18 11:38:41;;;;;;;142.60;64.53;;;;;;;-6.98;61.01;99260.27;2219097;80;21606;-82
2021/01/18 11:41:44;;;;;;;114.30;52.50;;;;;;;-6.90;60.96;99255.27;2215134;79;21979;-79
2021/01/18 11:44:46;;;;;;;106.95;44.55;;;;;;;-6.88;60.71;99248.40;2257981;79;21630;-81
2021/01/18 11:47:48;;;;;;;104.43;45.30;;;;;;;-6.83;60.75;99248.69;2253719;79;21142;-82
2021/01/18 11:50:50;;;;;;;85.28;37.90;;;;;;;-6.89;60.69;99252.28;2232451;80;21273;-81
2021/01/18 11:53:52;;;;;;;96.42;45.58;;;;;;;-6.72;60.88;99247.38;2232239;80;21116;-88
2021/01/18 11:56:54;;;;;;;90.38;43.98;;;;;;;-6.69;60.75;99240.06;2231990;80;21776;-85
2021/01/18 11:59:55;;;;;;;96.15;42.55;;;;;;;-6.68;60.61;99235.34;2265526;78;21400;-88
2021/01/18 12:02:57;;;;;;;90.55;41.18;;;;;;;-6.58;60.62;99235.41;2271520;78;21269;-86
2021/01/18 12:05:59;;;;;;;105.90;44.23;;;;;;;-6.60;60.39;99226.97;2271453;78;21135;-86
2021/01/18 12:09:04;;;;;;;91.45;41.25;;;;;;;-6.72;60.04;99228.73;2271626;78;21317;-83
2021/01/18 12:12:05;;;;;;;87.70;40.95;;;;;;;-6.78;59.94;99227.67;2272217;78;21265;-81
2021/01/18 12:15:07;;;;;;;82.10;37.15;;;;;;;-6.86;60.10;99225.42;2237143;78;21250;-86
2021/01/18 12:18:09;;;;;;;95.25;44.95;;;;;;;-6.85;59.99;99228.38;2230395;80;21140;-82
2021/01/18 12:21:11;;;;;;;88.62;40.52;;;;;;;-6.87;60.50;99225.03;2230185;80;21273;-84
2021/01/18 12:24:12;;;;;;;94.13;48.40;;;;;;;-6.81;60.31;99230.35;2230006;80;21147;-84
2021/01/18 12:27:14;;;;;;;97.90;47.67;;;;;;;-6.79;60.34;99230.67;2229850;80;21257;-82
2021/01/18 12:30:15;;;;;;;98.67;49.15;;;;;;;-6.72;60.85;99229.55;2230145;80;21136;-83
2021/01/18 12:33:17;;;;;;;98.82;47.35;;;;;;;-6.56;60.51;99225.15;2264850;78;21242;-79
2021/01/18 12:36:18;;;;;;;97.17;44.93;;;;;;;-6.57;60.41;99229.86;2272892;78;21262;-79
2021/01/18 12:39:20;;;;;;;90.15;41.33;;;;;;;-6.62;60.16;99213.47;2272529;78;21254;-81
2021/01/18 12:42:22;;;;;;;87.88;41.65;;;;;;;-6.60;60.33;99235.88;2240637;78;21261;-80
2021/01/18 12:45:25;;;;;;;85.53;39.98;;;;;;;-6.55;60.22;99217.44;2232839;78;21115;-82
2021/01/18 12:48:27;;;;;;;116.77;49.90;;;;;;;-6.58;60.35;99213.75;2227458;80;21230;-79
2021/01/18 12:51:29;;;;;;;165.32;61.05;;;;;;;-6.64;60.05;99216.52;2220880;79;21234;-83
2021/01/18 12:54:31;;;;;;;144.60;56.95;;;;;;;-6.74;60.17;99216.06;2250967;79;21147;-81
2021/01/18 12:57:33;;;;;;;167.65;65.45;;;;;;;-6.86;60.38;99216.50;2258532;79;21202;-81
2021/01/18 13:00:35;;;;;;;223.82;79.50;;;;;;;-6.91;60.41;99211.60;2227417;79;21127;-83
2021/01/18 13:03:36;;;;;;;205.75;76.55;;;;;;;-6.91;60.36;99198.88;2219017;80;21115;-82
2021/01/18 13:06:38;;;;;;;257.15;89.58;;;;;;;-7.06;60.39;99205.81;2219324;80;21285;-78
2021/01/18 13:09:40;;;;;;;246.45;83.90;;;;;;;-7.08;60.70;99202.50;2220180;80;21277;-86
2021/01/18 13:12:41;;;;;;;87.30;38.45;;;;;;;-7.19;60.59;99200.80;2222663;79;21107;-86
2021/01/18 13:15:44;;;;;;;94.47;40.78;;;;;;;-7.06;60.65;99195.63;2220396;80;21313;-81
2021/01/18 13:18:45;;;;;;;85.53;39.05;;;;;;;-7.14;60.32;99201.89;2221689;79;21131;-84
2021/01/18 13:21:47;;;;;;;89.65;40.03;;;;;;;-7.19;60.44;99198.26;2241945;79;21675;-81
2021/01/18 13:24:49;;;;;;;92.47;39.58;;;;;;;-7.14;60.72;99193.81;2240914;79;21242;-84
2021/01/18 13:27:50;;;;;;;99.20;45.33;;;;;;;-7.05;60.29;99198.55;2228041;79;21131;-81
2021/01/18 13:30:52;;;;;;;82.80;38.70;;;;;;;-7.16;60.13;99191.77;2226229;79;21159;-83
2021/01/18 13:33:54;;;;;;;87.05;39.42;;;;;;;-7.29;60.22;99188.03;2230954;79;21160;-83
2021/01/18 13:36:55;;;;;;;90.05;39.08;;;;;;;-7.43;60.31;99192.34;2218204;80;21179;-81
2021/01/18 13:39:57;;;;;;;95.47;40.75;;;;;;;-7.58;60.41;99187.38;2218094;80;21182;-81
2021/01/18 13:42:59;;;;;;;75.15;36.50;;;;;;;-7.62;60.80;99192.17;2218081;80;21172;-82
2021/01/18 13:46:00;;;;;;;88.75;40.88;;;;;;;-7.64;60.95;99195.66;2186852;80;21269;-82